Latest Coastal Weather Observations for Low Rocky Point

IDT60701

Issued at 11:02 pm EST Friday 5 June 2020 (issued every 10 minutes, with the page automatically refreshed every 10 minutes)

About coastal observations | Map of coastal stations | Coastal observations for TAS | Marine services | Other Formats
Station Details ID: 097080 Name: LOW ROCKY POINT Lat: -42.98 Lon: 145.50 Height: 34.0 m
Data from the previous 72 hours. | See also: Recent months at Low Rocky Point
Date/Time
EST
Wind Sea
Height
m
Swell Vis
km
Cloud Weather Temp
°C
Press
hPa
Rain since
9am
mm
Dir  Spd
kts
Gust
kts
Height
m
Period
s
Dir
05/11:00pm ENE 7 11 - - - - - - - 7.3 1027.9 -
05/10:30pm SE 9 13 - - - - - - - 7.5 1027.9 -
05/10:00pm SSE 13 19 - - - - - - - 7.6 1028.0 -
05/09:30pm SE 9 14 - - - - - - - 8.5 1028.0 -
05/09:00pm SSE 11 16 - - - - - - - 8.4 1027.9 -
05/08:30pm SSE 15 20 - - - - - - - 8.7 1027.8 -
05/08:00pm S 13 18 - - - - - - - 8.9 1027.7 -
05/07:30pm SSE 11 15 - - - - - - - 8.1 1027.6 -
05/07:00pm S 12 17 - - - - - - - 8.5 1027.5 -
05/06:30pm SSE 16 20 - - - - - - - 8.6 1027.0 -
05/06:00pm SSE 15 21 - - - - - - - 8.9 1026.7 -
05/05:30pm S 13 18 - - - - - - - 8.8 1026.4 -
05/05:00pm S 13 18 - - - - - - - 8.8 1026.2 -
05/04:30pm S 16 22 - - - - - - - 9.3 1025.7 -
05/04:00pm S 18 25 - - - - - - - 9.7 1025.6 -
05/03:30pm S 18 25 - - - - - - - 9.8 1025.3 -
05/03:00pm S 18 24 - - - - - - - 9.8 1024.9 -
05/02:30pm S 19 26 - - - - - - - 9.6 1024.8 -
05/02:00pm SSE 18 23 - - - - - - - 10.0 1024.5 -
05/01:30pm S 16 21 - - - - - - - 10.1 1024.2 -
05/01:00pm S 18 25 - - - - - - - 9.8 1024.2 -
05/12:30pm S 19 26 - - - - - - - 10.1 1024.1 -
05/12:00pm S 19 25 - - - - - - - 10.4 1023.9 -
05/11:59am S 19 25 - - - - - - - 10.3 1023.9 -
05/11:30am WSW 14 19 - - - - - - - 11.0 1023.8 -
05/11:00am W 20 26 - - - - - - - 10.9 1023.9 -
05/10:48am WNW 26 44 - - - - - - - 11.7 1023.4 -
05/10:30am WNW 26 30 - - - - - - - 11.6 1023.5 -
05/10:00am WNW 24 29 - - - - - - - 11.7 1023.3 -
05/09:30am WNW 22 27 - - - - - - - 11.8 1023.3 -
05/09:00am WNW 25 31 - - - - - - - 11.8 1023.4 -
05/08:30am WNW 22 27 - - - - - - - 12.0 1023.5 -
05/08:00am WNW 23 28 - - - - - - - 12.0 1023.4 -
05/07:30am WNW 24 29 - - - - - - - 11.7 1023.4 -
05/07:00am WNW 24 28 - - - - - - - 11.8 1023.5 -
05/06:30am WNW 23 28 - - - - - - - 11.5 1023.5 -
05/06:00am NW 24 29 - - - - - - - 11.5 1023.6 -
05/05:30am WNW 23 28 - - - - - - - 11.4 1023.6 -
05/05:00am WNW 23 30 - - - - - - - 11.1 1023.6 -
05/04:30am NW 22 28 - - - - - - - 11.0 1023.7 -
05/04:00am NW 24 31 - - - - - - - 10.9 1024.0 -
05/03:38am WNW 24 34 - - - - - - - 10.8 1024.1 -
05/03:30am NW 24 30 - - - - - - - 10.7 1024.2 -
05/03:00am NW 24 29 - - - - - - - 10.6 1024.6 -
05/02:30am NW 23 30 - - - - - - - 11.0 1024.7 -
05/02:00am WNW 22 31 - - - - - - - 10.8 1025.1 -
05/01:39am NW 24 34 - - - - - - - 10.6 1025.2 -
05/01:30am WNW 25 30 - - - - - - - 11.1 1025.4 -
05/01:00am NW 24 31 - - - - - - - 10.4 1025.5 -
05/12:44am WNW 23 33 - - - - - - - 10.8 1025.7 -
05/12:30am NW 25 31 - - - - - - - 11.0 1026.0 -
05/12:01am NW 24 35 - - - - - - - 10.9 1026.0 -
05/12:00am NW 23 29 - - - - - - - 11.0 1026.2 -
 
Date/Time
EST
Wind Sea
Height
m
Swell Vis
km
Cloud Weather Temp
°C
Press
hPa
Rain since
9am
mm
Dir  Spd
kts
Gust
kts
Height
m
Period
s
Dir
04/11:30pm NW 23 30 - - - - - - - 10.8 1026.5 -
04/11:00pm WNW 23 29 - - - - - - - 11.1 1026.7 -
04/10:30pm WNW 23 31 - - - - - - - 11.3 1027.0 -
04/10:00pm NW 22 28 - - - - - - - 11.3 1027.4 -
04/09:30pm NW 23 32 - - - - - - - 11.0 1027.8 -
04/09:27pm NW 22 32 - - - - - - - 11.3 1027.7 -
04/09:00pm NW 23 29 - - - - - - - 11.0 1028.0 -
04/08:30pm WNW 22 28 - - - - - - - 11.3 1028.2 -
04/08:00pm NW 21 28 - - - - - - - 11.3 1028.3 -
04/07:30pm WNW 22 26 - - - - - - - 11.3 1028.6 -
04/07:00pm NW 20 25 - - - - - - - 11.3 1028.4 -
04/06:30pm NW 21 27 - - - - - - - 11.1 1028.7 -
04/06:00pm WNW 21 25 - - - - - - - 11.1 1028.6 -
04/05:30pm NW 22 27 - - - - - - - 11.2 1028.7 -
04/05:00pm WNW 22 28 - - - - - - - 11.1 1029.0 -
04/04:30pm WNW 22 27 - - - - - - - 11.2 1029.0 -
04/04:00pm NW 21 25 - - - - - - - 11.3 1029.2 -
04/03:30pm NW 21 26 - - - - - - - 11.4 1029.4 -
04/03:00pm WNW 21 26 - - - - - - - 11.9 1029.5 -
04/02:30pm NW 22 27 - - - - - - - 11.7 1029.6 -
04/02:00pm NW 23 27 - - - - - - - 12.3 1029.8 -
04/01:30pm NW 21 27 - - - - - - - 11.9 1030.0 -
04/01:00pm NW 24 29 - - - - - - - 12.0 1030.4 -
04/12:30pm WNW 22 27 - - - - - - - 12.2 1030.6 -
04/12:00pm NW 21 25 - - - - - - - 12.4 1030.9 -
04/11:30am NW 20 26 - - - - - - - 11.7 1031.4 -
04/11:00am NW 19 23 - - - - - - - 11.9 1031.9 -
04/10:30am NW 18 23 - - - - - - - 11.3 1032.2 -
04/10:00am NW 19 23 - - - - - - - 11.2 1032.2 -
04/09:30am NW 18 23 - - - - - - - 11.1 1032.0 -
04/09:00am NW 17 22 - - - - - - - 10.7 1032.0 -
04/08:30am NW 18 21 - - - - - - - 10.6 1032.0 -
04/08:00am NW 19 23 - - - - - - - 10.6 1031.8 -
04/07:30am NW 17 23 - - - - - - - 10.5 1031.8 -
04/07:00am WNW 16 20 - - - - - - - 10.6 1031.9 -
04/06:30am WNW 15 19 - - - - - - - 10.5 1031.7 -
04/06:00am WNW 15 20 - - - - - - - 10.5 1031.6 -
04/05:30am WNW 13 17 - - - - - - - 10.1 1031.6 -
04/05:00am WNW 13 16 - - - - - - - 10.4 1031.4 -
04/04:30am WNW 14 18 - - - - - - - 10.4 1031.5 -
04/04:00am NW 12 18 - - - - - - - 10.3 1031.5 -
04/03:30am WNW 13 16 - - - - - - - 10.4 1031.4 -
04/03:00am W 12 17 - - - - - - - 10.4 1031.6 -
04/02:30am W 15 18 - - - - - - - 10.4 1031.9 -
04/02:00am WNW 12 16 - - - - - - - 10.6 1032.2 -
04/01:30am WNW 13 16 - - - - - - - 10.6 1032.3 -
04/01:00am WNW 15 18 - - - - - - - 10.5 1032.4 -
04/12:30am WNW 15 19 - - - - - - - 10.6 1032.6 -
04/12:00am WNW 13 16 - - - - - - - 10.7 1032.7 -
 
Date/Time
EST
Wind Sea
Height
m
Swell Vis
km
Cloud Weather Temp
°C
Press
hPa
Rain since
9am
mm
Dir  Spd
kts
Gust
kts
Height
m
Period
s
Dir
03/11:30pm WNW 13 16 - - - - - - - 10.5 1032.7 -
03/11:00pm W 11 15 - - - - - - - 10.6 1032.5 -
03/10:30pm W 11 16 - - - - - - - 10.5 1032.6 -
03/10:00pm W 10 13 - - - - - - - 10.4 1032.6 -
03/09:30pm W 7 10 - - - - - - - 10.0 1032.6 -
03/09:00pm W 8 9 - - - - - - - 10.1 1032.5 -
03/08:30pm WSW 9 13 - - - - - - - 9.9 1032.3 -
03/08:00pm W 8 12 - - - - - - - 9.7 1032.1 -
03/07:30pm WSW 9 12 - - - - - - - 10.0 1032.0 -
03/07:00pm WSW 8 12 - - - - - - - 9.9 1031.6 -
03/06:30pm SW 8 11 - - - - - - - 9.7 1031.5 -
03/06:00pm SW 7 10 - - - - - - - 9.6 1031.3 -
03/05:30pm SSW 9 12 - - - - - - - 9.5 1031.0 -
03/05:00pm WSW 11 16 - - - - - - - 9.6 1030.6 -
03/04:30pm SW 9 14 - - - - - - - 9.6 1030.4 -
03/04:00pm SW 8 11 - - - - - - - 9.6 1030.2 -
03/03:30pm SW 12 17 - - - - - - - 9.8 1030.1 -
03/03:00pm SW 12 18 - - - - - - - 10.7 1029.6 -
03/02:30pm SW 11 15 - - - - - - - 10.2 1029.4 -
03/02:00pm SSW 11 16 - - - - - - - 10.0 1029.3 -
03/01:30pm SSW 11 16 - - - - - - - 10.4 1029.3 -
03/01:00pm SSW 11 16 - - - - - - - 10.6 1029.2 -
03/12:30pm SSW 11 17 - - - - - - - 11.4 1029.0 -
03/12:00pm SSW 13 18 - - - - - - - 10.4 1029.0 -
03/11:30am SSW 13 19 - - - - - - - 10.5 1028.9 -
03/11:00am SSW 13 19 - - - - - - - 10.9 1028.9 -
03/10:30am S 15 21 - - - - - - - 10.6 1028.7 -
03/10:00am SSW 14 19 - - - - - - - 9.7 1028.5 -
03/09:30am S 11 16 - - - - - - - 9.7 1028.4 -
03/09:00am S 16 21 - - - - - - - 9.8 1027.9 -
03/08:30am S 17 25 - - - - - - - 9.6 1027.6 -
03/08:00am S 18 24 - - - - - - - 8.7 1027.1 -
03/07:46am S 15 27 - - - - - - - 9.0 1026.9 -
03/07:30am S 17 22 - - - - - - - 9.0 1026.7 -
03/07:00am SSW 19 27 - - - - - - - 8.0 1026.1 -
03/06:30am SSW 15 25 - - - - - - - 8.9 1025.6 -
03/06:00am S 15 21 - - - - - - - 9.0 1024.7 -
03/05:41am S 16 26 - - - - - - - 9.4 1024.2 -
03/05:30am S 18 25 - - - - - - - 9.2 1024.0 -
03/05:02am SSW 15 25 - - - - - - - 8.8 1023.5 -
03/05:00am SSW 15 24 - - - - - - - 8.7 1023.5 -
03/04:56am SSW 17 27 - - - - - - - 8.7 1023.5 -
03/04:30am SSW 17 26 - - - - - - - 9.2 1022.7 -
03/04:00am SSW 18 25 - - - - - - - 9.2 1022.0 -
03/03:30am SSW 20 27 - - - - - - - 9.1 1021.2 -
03/03:00am S 19 27 - - - - - - - 8.9 1020.7 -
03/02:30am S 20 27 - - - - - - - 8.9 1019.9 -
03/02:06am SSW 19 30 - - - - - - - 9.2 1019.3 -
03/02:00am SSW 18 26 - - - - - - - 9.1 1019.4 -
03/01:36am S 21 33 - - - - - - - 9.6 1018.4 -
03/01:30am S 21 29 - - - - - - - 9.5 1018.4 -
03/01:00am SSW 20 31 - - - - - - - 9.6 1017.4 -
03/12:35am SSW 20 30 - - - - - - - 9.8 1016.6 -
03/12:30am SSW 21 30 - - - - - - - 9.9 1016.4 -
03/12:00am S 21 31 - - - - - - - 9.3 1015.8 -
 
Date/Time
EST
Wind Sea
Height
m
Swell Vis
km
Cloud Weather Temp
°C
Press
hPa
Rain since
9am
mm
Dir  Spd
kts
Gust
kts
Height
m
Period
s
Dir
02/11:30pm SW 20 33 - - - - - - - 9.4 1015.3 -
02/11:12pm SW 17 27 - - - - - - - 10.1 1014.8 -

Other formats

Comma delimited format used in spreadsheet applications
http://www.bom.gov.au/fwo/IDT60701/IDT60701.95961.axf

JavaScript Object Notation format (JSON) in row-major order
http://www.bom.gov.au/fwo/IDT60701/IDT60701.95961.json

Data quality

Most of these data are generated automatically and are frequently updated. Quality checks on data are not normally performed. It is possible for incorrect values to appear. Refer to information at About Latest Weather Observations and please check the disclaimer before using these data.